Time;durP1;ratioP1;P1;durP2;ratioP2;P2;SDS_P1;SDS_P2;PMS_P1;PMS_P2;Temp;Humidity;BMP_temperature;BMP_pressure;BME280_temperature;BME280_humidity;BME280_pressure;Samples;Min_cycle;Max_cycle;Signal;HPM_P1;HPM_P2
2021/04/25 00:05:57;;;;;;;53.3;41.4;;;;;;;5.35;86.20117;98959.67;;;;
2021/04/25 00:15:55;;;;;;;42.8;32.8;;;;;;;5.11;87.38574;98966.56;;;;
2021/04/25 00:25:54;;;;;;;36.7;30;;;;;;;5.04;86.61621;98948.11;;;;
2021/04/25 00:35:52;;;;;;;36.9;31;;;;;;;5.13;86.73242;98952.95;;;;
2021/04/25 00:45:50;;;;;;;49.7;37.9;;;;;;;5.11;88.23926;98949.72;;;;
2021/04/25 00:55:48;;;;;;;43.3;34.1;;;;;;;5.17;87.59863;98949.5;;;;
2021/04/25 01:05:46;;;;;;;39.5;32;;;;;;;5.28;87.85156;98952.97;;;;
2021/04/25 01:15:44;;;;;;;44.5;33.6;;;;;;;5.26;87.70508;98942.56;;;;
2021/04/25 01:25:42;;;;;;;47.9;30;;;;;;;5.21;87.24902;98936.39;;;;
2021/04/25 01:35:41;;;;;;;40.1;31.8;;;;;;;5.17;87.16309;98935.34;;;;
2021/04/25 01:45:39;;;;;;;38.9;33.1;;;;;;;5.07;87.47656;98925.4;;;;
2021/04/25 01:55:39;;;;;;;39.9;32.3;;;;;;;4.96;89.04199;98940.59;;;;
2021/04/25 02:05:35;;;;;;;34.7;28.1;;;;;;;5.14;87.19141;98943.88;;;;
2021/04/25 02:15:33;;;;;;;38.6;28.3;;;;;;;5.08;85.94727;98919.81;;;;
2021/04/25 02:25:31;;;;;;;37.4;25.5;;;;;;;5;84.76367;98916.83;;;;
2021/04/25 02:35:30;;;;;;;32;26.4;;;;;;;4.79;85.57813;98907.95;;;;
2021/04/25 02:45:28;;;;;;;35.9;23;;;;;;;4.67;85.2666;98904.72;;;;
2021/04/25 02:55:26;;;;;;;37.1;23.5;;;;;;;4.64;86.29199;98901.77;;;;
2021/04/25 03:05:24;;;;;;;34.8;24.8;;;;;;;4.53;85.99512;98901.73;;;;
2021/04/25 03:15:22;;;;;;;36;25.5;;;;;;;4.36;85.95703;98894.97;;;;
2021/04/25 03:25:20;;;;;;;34;24.1;;;;;;;4.22;86.80664;98877.83;;;;
2021/04/25 03:35:18;;;;;;;26;22;;;;;;;4.06;87.44043;98888.39;;;;
2021/04/25 03:45:16;;;;;;;29.7;24;;;;;;;3.97;89.30273;98883.81;;;;
2021/04/25 03:55:14;;;;;;;32.8;26.1;;;;;;;4.02;89.01563;98887.33;;;;
2021/04/25 04:05:12;;;;;;;34.1;27.4;;;;;;;4.23;89.23438;98898.11;;;;
2021/04/25 04:15:10;;;;;;;37.2;27.7;;;;;;;4.49;88.58105;98887.3;;;;
2021/04/25 04:25:08;;;;;;;46.3;31.2;;;;;;;4.72;89.01465;98898.61;;;;
2021/04/25 04:35:06;;;;;;;38.3;31.1;;;;;;;5;88.09473;98890.13;;;;
2021/04/25 04:45:04;;;;;;;50.8;34.1;;;;;;;5.08;87.92285;98900.3;;;;
2021/04/25 04:55:02;;;;;;;32.2;28.7;;;;;;;5.51;85.42188;98907.86;;;;
2021/04/25 05:05:01;;;;;;;53.7;34.4;;;;;;;5.78;82.72363;98910.27;;;;
2021/04/25 05:14:59;;;;;;;48.2;35.4;;;;;;;5.84;83.13574;98913.73;;;;
2021/04/25 05:24:57;;;;;;;42.6;34.6;;;;;;;6.07;83.4248;98891.81;;;;
2021/04/25 05:34:55;;;;;;;50.3;37.4;;;;;;;6.21;83.21875;98906.24;;;;
2021/04/25 05:44:54;;;;;;;46.6;35.8;;;;;;;6.56;82.22559;98898.08;;;;
2021/04/25 05:54:53;;;;;;;48.3;38.2;;;;;;;6.81;80.65332;98907.09;;;;
2021/04/25 06:04:53;;;;;;;50.6;41.8;;;;;;;7.13;78.38574;98917.39;;;;
2021/04/25 06:14:48;;;;;;;47;39.7;;;;;;;7.56;76.33594;98911.22;;;;
2021/04/25 06:24:47;;;;;;;47.6;37.3;;;;;;;7.8;73.22656;98906.73;;;;
2021/04/25 06:34:45;;;;;;;44.8;33.4;;;;;;;8.32;71.34668;98906;;;;
2021/04/25 06:44:44;;;;;;;42.7;33.2;;;;;;;8.68;68.91895;98914.45;;;;
2021/04/25 06:54:42;;;;;;;30.4;23.3;;;;;;;8.77;65.96875;98903.88;;;;
2021/04/25 07:04:41;;;;;;;29;24.1;;;;;;;9.18;66.07617;98914.89;;;;
2021/04/25 07:14:40;;;;;;;40.5;25.2;;;;;;;9.51;64.48828;98913.89;;;;
2021/04/25 07:24:38;;;;;;;29.6;23.7;;;;;;;10.08;61.22363;98913.48;;;;
2021/04/25 07:34:37;;;;;;;29;22.3;;;;;;;10.18;59.30078;98901.75;;;;
2021/04/25 07:44:37;;;;;;;24.7;16.6;;;;;;;10.47;54.99414;98909.58;;;;
2021/04/25 07:54:35;;;;;;;19.2;11.8;;;;;;;10.6;51.33984;98908.78;;;;
2021/04/25 08:04:34;;;;;;;20.2;8.5;;;;;;;10.77;49.67578;98900.88;;;;
2021/04/25 08:14:32;;;;;;;10.4;8.2;;;;;;;10.9;48.76953;98897.37;;;;
2021/04/25 08:24:31;;;;;;;17.4;10.1;;;;;;;10.71;50.10156;98890.51;;;;
2021/04/25 08:34:30;;;;;;;15.7;7.2;;;;;;;10.41;45.28906;98883.84;;;;
2021/04/25 08:44:28;;;;;;;12.9;9.1;;;;;;;10.87;44.9375;98884.5;;;;
2021/04/25 08:54:27;;;;;;;16.6;7.9;;;;;;;11.28;44.56934;98878.23;;;;
2021/04/25 09:04:26;;;;;;;11;6.1;;;;;;;11.05;43.65723;98878.18;;;;
2021/04/25 09:14:25;;;;;;;9;5.4;;;;;;;10.95;43.79492;98875.7;;;;
2021/04/25 09:24:24;;;;;;;10.1;5.2;;;;;;;10.67;43.76563;98870.64;;;;
2021/04/25 09:34:22;;;;;;;8.7;5.6;;;;;;;10.93;42.02441;98869.02;;;;
2021/04/25 09:44:21;;;;;;;10.3;5.9;;;;;;;11.26;41.38281;98864.23;;;;
2021/04/25 09:54:20;;;;;;;7;4.5;;;;;;;11.11;40.54688;98858.08;;;;
2021/04/25 10:04:19;;;;;;;11.8;5.2;;;;;;;11.32;41.45605;98854.91;;;;
2021/04/25 10:14:18;;;;;;;13;4.7;;;;;;;11.2;42.12012;98847.38;;;;
2021/04/25 10:24:19;;;;;;;14.4;6.3;;;;;;;11.72;41.4502;98843.18;;;;
2021/04/25 10:34:16;;;;;;;9.1;5.5;;;;;;;12.17;40.41602;98838.5;;;;
2021/04/25 10:44:15;;;;;;;9;5.2;;;;;;;12.21;38.81641;98838.67;;;;
2021/04/25 10:54:14;;;;;;;8.3;4.9;;;;;;;11.53;38.87012;98839.83;;;;
2021/04/25 11:04:13;;;;;;;7.4;4.7;;;;;;;11.16;39.48926;98846.38;;;;
2021/04/25 11:14:12;;;;;;;6.9;3.7;;;;;;;11.2;39.92773;98852.77;;;;
2021/04/25 11:24:11;;;;;;;10.5;4.9;;;;;;;10.83;39.55078;98851.14;;;;
2021/04/25 11:34:09;;;;;;;8.6;4.5;;;;;;;11.26;40.40039;98846.15;;;;
2021/04/25 11:44:08;;;;;;;9.8;6.1;;;;;;;11.39;39.01855;98839.09;;;;
2021/04/25 11:54:07;;;;;;;9.1;4.5;;;;;;;11.81;38.01465;98830.52;;;;
2021/04/25 12:04:06;;;;;;;8.8;4.9;;;;;;;11.61;40.10156;98820.2;;;;
2021/04/25 12:14:05;;;;;;;7.2;4;;;;;;;12.1;38.33789;98830.84;;;;
2021/04/25 12:24:06;;;;;;;12.4;5.2;;;;;;;11.08;41.25195;98829.02;;;;
2021/04/25 12:34:03;;;;;;;7.3;3.9;;;;;;;10.92;41.08789;98841.26;;;;
2021/04/25 12:44:02;;;;;;;8.9;5;;;;;;;11.32;41.06836;98833.33;;;;
2021/04/25 12:54:06;;;;;;;9.2;5.3;;;;;;;11.3;40.41504;98830.14;;;;
2021/04/25 13:04:00;;;;;;;10.1;4.8;;;;;;;11;40.98145;98807.38;;;;
2021/04/25 13:14:08;;;;;;;8.9;4.8;;;;;;;10.37;42.85938;98832.44;;;;
2021/04/25 13:23:58;;;;;;;8.1;4.3;;;;;;;10.07;42.31738;98838.36;;;;
2021/04/25 13:33:57;;;;;;;9.9;5.6;;;;;;;10.05;43.5791;98827.91;;;;
2021/04/25 13:43:56;;;;;;;6.1;3.6;;;;;;;9.75;42.30859;98838.42;;;;
2021/04/25 13:53:55;;;;;;;7.7;5;;;;;;;10.05;41.94043;98830.59;;;;
2021/04/25 14:03:54;;;;;;;7.7;4.1;;;;;;;9.99;39.67969;98842.56;;;;
2021/04/25 14:13:54;;;;;;;5.8;3.3;;;;;;;9.99;39.88477;98841.77;;;;
2021/04/25 14:23:54;;;;;;;7.1;3.3;;;;;;;9.74;41.45508;98837.63;;;;
2021/04/25 14:33:50;;;;;;;8.1;4.5;;;;;;;9.7;41.15527;98850.06;;;;
2021/04/25 14:43:49;;;;;;;10.1;3.5;;;;;;;9.94;39.70898;98839.95;;;;
2021/04/25 14:53:47;;;;;;;10;4.1;;;;;;;9.55;39.14941;98845.73;;;;
2021/04/25 15:03:46;;;;;;;5.7;3.6;;;;;;;9.25;39.95215;98861.55;;;;
2021/04/25 15:13:45;;;;;;;4.4;2.1;;;;;;;9.09;39.84668;98852.92;;;;
2021/04/25 15:23:44;;;;;;;7.3;2.8;;;;;;;8.78;41.48828;98863.27;;;;
2021/04/25 15:33:42;;;;;;;7;3.7;;;;;;;8.58;41.87793;98872.39;;;;
2021/04/25 15:43:41;;;;;;;6.9;2.8;;;;;;;8.56;41.5918;98871.08;;;;
2021/04/25 15:53:39;;;;;;;4.6;2.7;;;;;;;10.04;38.875;98874.77;;;;
2021/04/25 16:03:38;;;;;;;4.2;2.1;;;;;;;8.25;41.05078;98885.91;;;;
2021/04/25 16:13:37;;;;;;;6.7;2.7;;;;;;;7.67;41.93652;98901.98;;;;
2021/04/25 16:23:35;;;;;;;6.2;3.6;;;;;;;7.75;43.63086;98896.03;;;;
2021/04/25 16:33:34;;;;;;;6.3;3.5;;;;;;;7.62;43.93457;98893.2;;;;
2021/04/25 16:43:32;;;;;;;18.1;7.3;;;;;;;7.68;40.80566;98903.6;;;;
2021/04/25 16:53:31;;;;;;;11.3;8.5;;;;;;;7.48;41.90723;98914.48;;;;
2021/04/25 17:03:29;;;;;;;17;11.7;;;;;;;7.16;42.75879;98920.31;;;;
2021/04/25 17:13:28;;;;;;;9.8;4.5;;;;;;;6.8;41.27637;98925.06;;;;
2021/04/25 17:23:26;;;;;;;6.1;3.2;;;;;;;6.52;40.87598;98936.41;;;;
2021/04/25 17:33:24;;;;;;;6.2;3.8;;;;;;;6.18;40.60645;98938.09;;;;
2021/04/25 17:43:23;;;;;;;12.6;7.5;;;;;;;5.71;42.0625;98955.19;;;;
2021/04/25 17:53:21;;;;;;;12.5;6.7;;;;;;;5.24;42.91602;98957.27;;;;
2021/04/25 18:03:19;;;;;;;12.4;8.2;;;;;;;4.77;45.51172;98971.5;;;;
2021/04/25 18:13:17;;;;;;;13;8.3;;;;;;;4.53;44.94727;98978.33;;;;
2021/04/25 18:23:15;;;;;;;13.7;6.4;;;;;;;4.23;45.74512;98983.48;;;;
2021/04/25 18:33:14;;;;;;;16.9;9.7;;;;;;;3.61;47.87402;98996.56;;;;
2021/04/25 18:43:12;;;;;;;17.6;10.5;;;;;;;3.2;48.79102;99003.3;;;;
2021/04/25 18:53:10;;;;;;;16.1;6.5;;;;;;;3.47;49.125;99023.59;;;;
2021/04/25 19:03:08;;;;;;;8.9;5.2;;;;;;;3.6;49.0498;99025.07;;;;
2021/04/25 19:13:06;;;;;;;29.3;22;;;;;;;3.44;49.8252;99028.61;;;;
2021/04/25 19:23:03;;;;;;;15.3;12.2;;;;;;;2.82;52.17676;99026.28;;;;
2021/04/25 19:33:01;;;;;;;12;9.8;;;;;;;2.19;54.26074;99029.35;;;;
2021/04/25 19:42:59;;;;;;;15.5;10.4;;;;;;;1.76;57.08789;99032.65;;;;
2021/04/25 19:52:57;;;;;;;17.4;11.3;;;;;;;1.3;57.90234;99046.13;;;;
2021/04/25 20:02:55;;;;;;;16.2;9;;;;;;;1.06;59.24609;99049.88;;;;
2021/04/25 20:12:55;;;;;;;15.8;8.8;;;;;;;0.85;61.0127;99044.16;;;;
2021/04/25 20:22:50;;;;;;;10;7.4;;;;;;;0.49;62.57813;99039.11;;;;
2021/04/25 20:32:47;;;;;;;8;5.6;;;;;;;0.33;65.1748;99039.81;;;;
2021/04/25 20:42:45;;;;;;;16.5;10;;;;;;;0.12;65.50781;99038.53;;;;
2021/04/25 20:52:42;;;;;;;20.7;11.6;;;;;;;-0.11;67.93359;99038.5;;;;
2021/04/25 21:02:40;;;;;;;16.9;13.1;;;;;;;-0.3;69.50293;99043.05;;;;
2021/04/25 21:12:37;;;;;;;14.3;12.3;;;;;;;-0.51;68.69629;99054.14;;;;
2021/04/25 21:22:35;;;;;;;18.6;12.3;;;;;;;-0.65;70.42578;99042.92;;;;
2021/04/25 21:32:32;;;;;;;22.6;17.6;;;;;;;-0.78;72.33887;99037;;;;
2021/04/25 21:42:30;;;;;;;14;12.5;;;;;;;-0.89;74.79492;99040.39;;;;
2021/04/25 21:52:27;;;;;;;19.6;14.5;;;;;;;-0.98;75.21973;99037.26;;;;
2021/04/25 22:02:25;;;;;;;20.7;14.2;;;;;;;-1.08;75.53125;99029.03;;;;
2021/04/25 22:12:22;;;;;;;21.6;16.2;;;;;;;-1.16;77.00977;99018.75;;;;
2021/04/25 22:22:20;;;;;;;18.4;13.5;;;;;;;-1.09;79.84473;99017.65;;;;
2021/04/25 22:32:18;;;;;;;15.3;9;;;;;;;-1.17;80.4541;99007.36;;;;
2021/04/25 22:42:15;;;;;;;14.1;9.4;;;;;;;-1.17;80.18066;99002.07;;;;
2021/04/25 22:52:12;;;;;;;12.8;8.7;;;;;;;-1.34;80.10254;98997.59;;;;
2021/04/25 23:02:09;;;;;;;15.3;9.2;;;;;;;-1.53;81.71094;99002.09;;;;
2021/04/25 23:12:07;;;;;;;15.2;11.8;;;;;;;-1.68;81.00293;98991.05;;;;
2021/04/25 23:22:04;;;;;;;13.4;9.5;;;;;;;-1.7;80.68164;98983.33;;;;
2021/04/25 23:32:02;;;;;;;17.3;8.8;;;;;;;-1.64;81.5791;98984.3;;;;
2021/04/25 23:41:59;;;;;;;15.9;9.4;;;;;;;-1.53;80.79102;98986.23;;;;
2021/04/25 23:51:56;;;;;;;17.7;9.1;;;;;;;-1.67;80.85254;98990.84;;;;
